sensor_id;sensor_type;location;lat;lon;timestamp;temperature;humidity
11497;DHT22;5805;51.542;7.230;2023-11-21T00:00:25;10.70;99.90
11497;DHT22;5805;51.542;7.230;2023-11-21T00:02:51;10.40;99.90
11497;DHT22;5805;51.542;7.230;2023-11-21T00:05:17;10.60;99.90
11497;DHT22;5805;51.542;7.230;2023-11-21T00:07:44;10.50;99.90
11497;DHT22;5805;51.542;7.230;2023-11-21T00:10:11;10.60;99.90
11497;DHT22;5805;51.542;7.230;2023-11-21T00:12:37;10.80;99.90
11497;DHT22;5805;51.542;7.230;2023-11-21T00:15:04;10.70;99.90
11497;DHT22;5805;51.542;7.230;2023-11-21T00:17:29;10.80;99.90
11497;DHT22;5805;51.542;7.230;2023-11-21T00:19:55;10.90;99.90
11497;DHT22;5805;51.542;7.230;2023-11-21T00:22:21;11.10;99.90
11497;DHT22;5805;51.542;7.230;2023-11-21T00:24:48;10.90;99.90
11497;DHT22;5805;51.542;7.230;2023-11-21T00:27:14;10.90;99.90
11497;DHT22;5805;51.542;7.230;2023-11-21T00:29:40;10.90;99.90
11497;DHT22;5805;51.542;7.230;2023-11-21T00:32:06;10.90;99.90
11497;DHT22;5805;51.542;7.230;2023-11-21T00:34:32;11.00;99.90
11497;DHT22;5805;51.542;7.230;2023-11-21T00:36:59;11.00;99.90
11497;DHT22;5805;51.542;7.230;2023-11-21T00:39:25;11.00;99.90
11497;DHT22;5805;51.542;7.230;2023-11-21T00:41:52;11.50;99.90
11497;DHT22;5805;51.542;7.230;2023-11-21T00:44:18;11.30;99.90
11497;DHT22;5805;51.542;7.230;2023-11-21T00:46:44;11.10;99.90
11497;DHT22;5805;51.542;7.230;2023-11-21T00:49:10;11.70;99.90
11497;DHT22;5805;51.542;7.230;2023-11-21T00:51:37;11.20;99.90
11497;DHT22;5805;51.542;7.230;2023-11-21T00:54:04;11.20;99.90
11497;DHT22;5805;51.542;7.230;2023-11-21T00:56:30;11.20;99.90
11497;DHT22;5805;51.542;7.230;2023-11-21T00:58:57;11.40;99.90
11497;DHT22;5805;51.542;7.230;2023-11-21T01:01:23;11.20;99.90
11497;DHT22;5805;51.542;7.230;2023-11-21T01:03:49;11.20;99.90
11497;DHT22;5805;51.542;7.230;2023-11-21T01:06:15;11.20;99.90
11497;DHT22;5805;51.542;7.230;2023-11-21T01:08:41;11.20;99.90
11497;DHT22;5805;51.542;7.230;2023-11-21T01:11:06;11.20;99.90
11497;DHT22;5805;51.542;7.230;2023-11-21T01:13:32;11.20;99.90
11497;DHT22;5805;51.542;7.230;2023-11-21T01:15:59;11.20;99.90
11497;DHT22;5805;51.542;7.230;2023-11-21T01:18:26;11.70;99.90
11497;DHT22;5805;51.542;7.230;2023-11-21T01:20:52;11.20;99.90
11497;DHT22;5805;51.542;7.230;2023-11-21T01:23:19;11.20;99.90
11497;DHT22;5805;51.542;7.230;2023-11-21T01:25:45;11.10;99.90
11497;DHT22;5805;51.542;7.230;2023-11-21T01:28:11;11.20;99.90
11497;DHT22;5805;51.542;7.230;2023-11-21T01:30:37;11.20;99.90
11497;DHT22;5805;51.542;7.230;2023-11-21T01:33:05;11.20;99.90
11497;DHT22;5805;51.542;7.230;2023-11-21T01:35:30;11.30;99.90
11497;DHT22;5805;51.542;7.230;2023-11-21T01:37:56;11.30;99.90
11497;DHT22;5805;51.542;7.230;2023-11-21T01:40:23;11.90;99.90
11497;DHT22;5805;51.542;7.230;2023-11-21T01:42:49;11.30;99.90
11497;DHT22;5805;51.542;7.230;2023-11-21T01:45:16;11.50;99.90
11497;DHT22;5805;51.542;7.230;2023-11-21T01:47:42;11.40;99.90
11497;DHT22;5805;51.542;7.230;2023-11-21T01:50:14;11.30;99.90
11497;DHT22;5805;51.542;7.230;2023-11-21T01:52:43;11.30;99.90
11497;DHT22;5805;51.542;7.230;2023-11-21T01:55:09;11.30;99.90
11497;DHT22;5805;51.542;7.230;2023-11-21T01:57:36;11.40;99.90
11497;DHT22;5805;51.542;7.230;2023-11-21T02:00:03;11.40;99.90
11497;DHT22;5805;51.542;7.230;2023-11-21T02:02:29;11.30;99.90
11497;DHT22;5805;51.542;7.230;2023-11-21T02:04:55;11.50;99.90
11497;DHT22;5805;51.542;7.230;2023-11-21T02:07:22;11.30;99.90
11497;DHT22;5805;51.542;7.230;2023-11-21T02:09:48;11.20;99.90
11497;DHT22;5805;51.542;7.230;2023-11-21T02:12:13;11.20;99.90
11497;DHT22;5805;51.542;7.230;2023-11-21T02:14:41;11.10;99.90
11497;DHT22;5805;51.542;7.230;2023-11-21T02:17:06;11.00;99.90
11497;DHT22;5805;51.542;7.230;2023-11-21T02:19:33;10.90;99.90
11497;DHT22;5805;51.542;7.230;2023-11-21T02:21:59;10.90;99.90
11497;DHT22;5805;51.542;7.230;2023-11-21T02:24:27;10.90;99.90
11497;DHT22;5805;51.542;7.230;2023-11-21T02:26:53;10.90;99.90
11497;DHT22;5805;51.542;7.230;2023-11-21T02:29:19;11.00;99.90
11497;DHT22;5805;51.542;7.230;2023-11-21T02:31:46;11.00;99.90
11497;DHT22;5805;51.542;7.230;2023-11-21T02:34:12;11.00;99.90
11497;DHT22;5805;51.542;7.230;2023-11-21T02:36:38;11.10;99.90
11497;DHT22;5805;51.542;7.230;2023-11-21T02:39:03;11.00;99.90
11497;DHT22;5805;51.542;7.230;2023-11-21T02:41:30;11.00;99.90
11497;DHT22;5805;51.542;7.230;2023-11-21T02:43:56;11.00;99.90
11497;DHT22;5805;51.542;7.230;2023-11-21T02:46:22;11.00;99.90
11497;DHT22;5805;51.542;7.230;2023-11-21T02:48:48;11.00;99.90
11497;DHT22;5805;51.542;7.230;2023-11-21T02:51:13;11.00;99.90
11497;DHT22;5805;51.542;7.230;2023-11-21T02:53:39;11.20;99.90
11497;DHT22;5805;51.542;7.230;2023-11-21T02:56:06;11.10;99.90
11497;DHT22;5805;51.542;7.230;2023-11-21T02:58:33;11.10;99.90
11497;DHT22;5805;51.542;7.230;2023-11-21T03:00:58;11.20;99.90
11497;DHT22;5805;51.542;7.230;2023-11-21T03:03:24;11.10;99.90
11497;DHT22;5805;51.542;7.230;2023-11-21T03:05:50;11.20;99.90
11497;DHT22;5805;51.542;7.230;2023-11-21T03:08:16;11.20;99.90
11497;DHT22;5805;51.542;7.230;2023-11-21T03:10:42;11.20;99.90
11497;DHT22;5805;51.542;7.230;2023-11-21T03:13:08;11.20;99.90
11497;DHT22;5805;51.542;7.230;2023-11-21T03:15:35;11.30;99.90
11497;DHT22;5805;51.542;7.230;2023-11-21T03:18:01;11.30;99.90
11497;DHT22;5805;51.542;7.230;2023-11-21T03:20:26;11.90;99.90
11497;DHT22;5805;51.542;7.230;2023-11-21T03:22:52;11.90;99.90
11497;DHT22;5805;51.542;7.230;2023-11-21T03:25:18;11.20;99.90
11497;DHT22;5805;51.542;7.230;2023-11-21T03:27:43;11.20;99.90
11497;DHT22;5805;51.542;7.230;2023-11-21T03:30:10;11.20;99.90
11497;DHT22;5805;51.542;7.230;2023-11-21T03:32:37;11.20;99.90
11497;DHT22;5805;51.542;7.230;2023-11-21T03:35:03;11.20;99.90
11497;DHT22;5805;51.542;7.230;2023-11-21T03:37:29;11.20;99.90
11497;DHT22;5805;51.542;7.230;2023-11-21T03:39:56;11.20;99.90
11497;DHT22;5805;51.542;7.230;2023-11-21T03:42:22;11.70;99.90
11497;DHT22;5805;51.542;7.230;2023-11-21T03:44:47;11.20;99.90
11497;DHT22;5805;51.542;7.230;2023-11-21T03:47:13;11.60;99.90
11497;DHT22;5805;51.542;7.230;2023-11-21T03:49:40;11.30;99.90
11497;DHT22;5805;51.542;7.230;2023-11-21T03:52:06;11.30;99.90
11497;DHT22;5805;51.542;7.230;2023-11-21T03:54:32;11.30;99.90
11497;DHT22;5805;51.542;7.230;2023-11-21T03:56:59;11.30;99.90
11497;DHT22;5805;51.542;7.230;2023-11-21T03:59:25;11.30;99.90
11497;DHT22;5805;51.542;7.230;2023-11-21T04:01:50;11.30;99.90
11497;DHT22;5805;51.542;7.230;2023-11-21T04:04:16;11.80;99.90
11497;DHT22;5805;51.542;7.230;2023-11-21T04:06:43;11.30;99.90
11497;DHT22;5805;51.542;7.230;2023-11-21T04:09:09;11.40;99.90
11497;DHT22;5805;51.542;7.230;2023-11-21T04:11:35;11.30;99.90
11497;DHT22;5805;51.542;7.230;2023-11-21T04:14:01;11.60;99.90
11497;DHT22;5805;51.542;7.230;2023-11-21T04:16:27;11.20;99.90
11497;DHT22;5805;51.542;7.230;2023-11-21T04:18:53;11.20;99.90
11497;DHT22;5805;51.542;7.230;2023-11-21T04:21:18;11.30;99.90
11497;DHT22;5805;51.542;7.230;2023-11-21T04:23:46;11.20;99.90
11497;DHT22;5805;51.542;7.230;2023-11-21T04:26:11;11.20;99.90
11497;DHT22;5805;51.542;7.230;2023-11-21T04:28:37;11.30;99.90
11497;DHT22;5805;51.542;7.230;2023-11-21T04:31:03;11.20;99.90
11497;DHT22;5805;51.542;7.230;2023-11-21T04:33:29;11.10;99.90
11497;DHT22;5805;51.542;7.230;2023-11-21T04:35:54;11.00;99.90
11497;DHT22;5805;51.542;7.230;2023-11-21T04:38:21;11.10;99.90
11497;DHT22;5805;51.542;7.230;2023-11-21T04:40:49;11.00;99.90
11497;DHT22;5805;51.542;7.230;2023-11-21T04:43:14;11.00;99.90
11497;DHT22;5805;51.542;7.230;2023-11-21T04:45:40;10.90;99.90
11497;DHT22;5805;51.542;7.230;2023-11-21T04:48:07;10.90;99.90
11497;DHT22;5805;51.542;7.230;2023-11-21T04:50:33;10.90;99.90
11497;DHT22;5805;51.542;7.230;2023-11-21T04:52:59;11.50;99.90
11497;DHT22;5805;51.542;7.230;2023-11-21T04:55:25;11.20;99.90
11497;DHT22;5805;51.542;7.230;2023-11-21T04:57:52;10.70;99.90
11497;DHT22;5805;51.542;7.230;2023-11-21T05:00:19;10.70;99.90
11497;DHT22;5805;51.542;7.230;2023-11-21T05:02:46;10.80;99.90
11497;DHT22;5805;51.542;7.230;2023-11-21T05:05:13;10.80;99.90
11497;DHT22;5805;51.542;7.230;2023-11-21T05:07:39;10.90;99.90
11497;DHT22;5805;51.542;7.230;2023-11-21T05:10:06;10.90;99.90
11497;DHT22;5805;51.542;7.230;2023-11-21T05:12:32;10.80;99.90
11497;DHT22;5805;51.542;7.230;2023-11-21T05:14:59;10.90;99.90
11497;DHT22;5805;51.542;7.230;2023-11-21T05:17:25;10.90;99.90
11497;DHT22;5805;51.542;7.230;2023-11-21T05:19:50;11.00;99.90
11497;DHT22;5805;51.542;7.230;2023-11-21T05:22:16;10.80;99.90
11497;DHT22;5805;51.542;7.230;2023-11-21T05:24:42;11.50;99.90
11497;DHT22;5805;51.542;7.230;2023-11-21T05:27:08;10.90;99.90
11497;DHT22;5805;51.542;7.230;2023-11-21T05:29:34;10.90;99.90
11497;DHT22;5805;51.542;7.230;2023-11-21T05:32:01;10.90;99.90
11497;DHT22;5805;51.542;7.230;2023-11-21T05:34:27;10.90;99.90
11497;DHT22;5805;51.542;7.230;2023-11-21T05:36:53;11.00;99.90
11497;DHT22;5805;51.542;7.230;2023-11-21T05:39:18;11.00;99.90
11497;DHT22;5805;51.542;7.230;2023-11-21T05:41:44;10.90;99.90
11497;DHT22;5805;51.542;7.230;2023-11-21T05:44:10;10.90;99.90
11497;DHT22;5805;51.542;7.230;2023-11-21T05:46:36;10.90;99.90
11497;DHT22;5805;51.542;7.230;2023-11-21T05:49:03;10.90;99.90
11497;DHT22;5805;51.542;7.230;2023-11-21T05:51:29;10.90;99.90
11497;DHT22;5805;51.542;7.230;2023-11-21T05:53:55;11.70;99.90
11497;DHT22;5805;51.542;7.230;2023-11-21T05:56:21;10.90;99.90
11497;DHT22;5805;51.542;7.230;2023-11-21T05:58:46;11.30;99.90
11497;DHT22;5805;51.542;7.230;2023-11-21T06:03:38;10.90;99.90
11497;DHT22;5805;51.542;7.230;2023-11-21T06:06:06;10.90;99.90
11497;DHT22;5805;51.542;7.230;2023-11-21T06:08:32;10.90;99.90
11497;DHT22;5805;51.542;7.230;2023-11-21T06:10:57;10.90;99.90
11497;DHT22;5805;51.542;7.230;2023-11-21T06:13:23;10.90;99.90
11497;DHT22;5805;51.542;7.230;2023-11-21T06:15:48;11.40;99.90
11497;DHT22;5805;51.542;7.230;2023-11-21T06:18:14;10.90;99.90
11497;DHT22;5805;51.542;7.230;2023-11-21T06:20:40;10.90;99.90
11497;DHT22;5805;51.542;7.230;2023-11-21T06:23:07;11.10;99.90
11497;DHT22;5805;51.542;7.230;2023-11-21T06:25:33;10.90;99.90
11497;DHT22;5805;51.542;7.230;2023-11-21T06:27:59;10.90;99.90
11497;DHT22;5805;51.542;7.230;2023-11-21T06:30:27;10.90;99.90
11497;DHT22;5805;51.542;7.230;2023-11-21T06:32:53;10.80;99.90
11497;DHT22;5805;51.542;7.230;2023-11-21T06:35:19;10.80;99.90
11497;DHT22;5805;51.542;7.230;2023-11-21T06:37:45;10.80;99.90
11497;DHT22;5805;51.542;7.230;2023-11-21T06:40:13;10.80;99.90
11497;DHT22;5805;51.542;7.230;2023-11-21T06:42:40;10.80;99.90
11497;DHT22;5805;51.542;7.230;2023-11-21T06:45:07;11.00;99.90
11497;DHT22;5805;51.542;7.230;2023-11-21T06:47:33;10.80;99.90
11497;DHT22;5805;51.542;7.230;2023-11-21T06:49:59;11.00;99.90
11497;DHT22;5805;51.542;7.230;2023-11-21T06:52:25;10.90;99.90
11497;DHT22;5805;51.542;7.230;2023-11-21T06:54:51;10.90;99.90
11497;DHT22;5805;51.542;7.230;2023-11-21T06:57:18;10.90;99.90
11497;DHT22;5805;51.542;7.230;2023-11-21T06:59:44;11.00;99.90
11497;DHT22;5805;51.542;7.230;2023-11-21T07:02:10;11.90;99.90
11497;DHT22;5805;51.542;7.230;2023-11-21T07:04:35;11.10;99.90
11497;DHT22;5805;51.542;7.230;2023-11-21T07:07:01;11.20;99.90
11497;DHT22;5805;51.542;7.230;2023-11-21T07:09:28;11.10;99.90
11497;DHT22;5805;51.542;7.230;2023-11-21T07:11:55;11.10;99.90
11497;DHT22;5805;51.542;7.230;2023-11-21T07:14:22;11.50;99.90
11497;DHT22;5805;51.542;7.230;2023-11-21T07:16:48;11.10;99.90
11497;DHT22;5805;51.542;7.230;2023-11-21T07:19:14;11.20;99.90
11497;DHT22;5805;51.542;7.230;2023-11-21T07:21:40;11.10;99.90
11497;DHT22;5805;51.542;7.230;2023-11-21T07:24:07;11.10;99.90
11497;DHT22;5805;51.542;7.230;2023-11-21T07:26:34;11.20;99.90
11497;DHT22;5805;51.542;7.230;2023-11-21T07:28:59;11.40;99.90
11497;DHT22;5805;51.542;7.230;2023-11-21T07:31:27;11.20;99.90
11497;DHT22;5805;51.542;7.230;2023-11-21T07:33:52;11.30;99.90
11497;DHT22;5805;51.542;7.230;2023-11-21T07:36:19;11.30;99.90
11497;DHT22;5805;51.542;7.230;2023-11-21T07:38:45;11.30;99.90
11497;DHT22;5805;51.542;7.230;2023-11-21T07:41:11;11.30;99.90
11497;DHT22;5805;51.542;7.230;2023-11-21T07:43:36;11.40;99.90
11497;DHT22;5805;51.542;7.230;2023-11-21T07:46:02;11.40;99.90
11497;DHT22;5805;51.542;7.230;2023-11-21T07:48:30;11.40;99.90
11497;DHT22;5805;51.542;7.230;2023-11-21T07:50:55;11.40;99.90
11497;DHT22;5805;51.542;7.230;2023-11-21T07:53:21;11.40;99.90
11497;DHT22;5805;51.542;7.230;2023-11-21T07:55:47;11.70;99.90
11497;DHT22;5805;51.542;7.230;2023-11-21T07:58:12;11.50;99.90
11497;DHT22;5805;51.542;7.230;2023-11-21T08:00:38;11.50;99.90
11497;DHT22;5805;51.542;7.230;2023-11-21T08:03:04;11.80;99.90
11497;DHT22;5805;51.542;7.230;2023-11-21T08:05:31;11.60;99.90
11497;DHT22;5805;51.542;7.230;2023-11-21T08:07:57;11.70;99.90
11497;DHT22;5805;51.542;7.230;2023-11-21T08:10:23;11.80;99.90
11497;DHT22;5805;51.542;7.230;2023-11-21T08:12:48;11.80;99.90
11497;DHT22;5805;51.542;7.230;2023-11-21T08:15:14;11.80;99.90
11497;DHT22;5805;51.542;7.230;2023-11-21T08:17:40;11.90;99.90
11497;DHT22;5805;51.542;7.230;2023-11-21T08:20:07;11.90;99.90
11497;DHT22;5805;51.542;7.230;2023-11-21T08:22:34;11.90;99.90
11497;DHT22;5805;51.542;7.230;2023-11-21T08:25:00;12.70;99.90
11497;DHT22;5805;51.542;7.230;2023-11-21T08:27:25;12.00;99.90
11497;DHT22;5805;51.542;7.230;2023-11-21T08:29:51;12.00;99.90
11497;DHT22;5805;51.542;7.230;2023-11-21T08:32:17;12.10;99.90
11497;DHT22;5805;51.542;7.230;2023-11-21T08:34:43;12.20;99.90
11497;DHT22;5805;51.542;7.230;2023-11-21T08:37:08;12.20;99.90
11497;DHT22;5805;51.542;7.230;2023-11-21T08:39:36;12.20;99.90
11497;DHT22;5805;51.542;7.230;2023-11-21T08:42:02;12.50;99.90
11497;DHT22;5805;51.542;7.230;2023-11-21T08:44:30;12.20;99.90
11497;DHT22;5805;51.542;7.230;2023-11-21T08:46:55;12.20;99.90
11497;DHT22;5805;51.542;7.230;2023-11-21T08:49:21;12.10;99.90
11497;DHT22;5805;51.542;7.230;2023-11-21T08:51:47;12.10;99.90
11497;DHT22;5805;51.542;7.230;2023-11-21T08:54:12;12.20;99.90
11497;DHT22;5805;51.542;7.230;2023-11-21T08:56:39;12.20;99.90
11497;DHT22;5805;51.542;7.230;2023-11-21T08:59:05;12.20;99.90
11497;DHT22;5805;51.542;7.230;2023-11-21T09:01:31;12.20;99.90
11497;DHT22;5805;51.542;7.230;2023-11-21T09:03:57;12.30;99.90
11497;DHT22;5805;51.542;7.230;2023-11-21T09:06:23;12.30;99.90
11497;DHT22;5805;51.542;7.230;2023-11-21T09:08:48;12.30;99.90
11497;DHT22;5805;51.542;7.230;2023-11-21T09:11:14;12.40;99.90
11497;DHT22;5805;51.542;7.230;2023-11-21T09:13:41;12.80;99.90
11497;DHT22;5805;51.542;7.230;2023-11-21T09:16:07;12.60;99.90
11497;DHT22;5805;51.542;7.230;2023-11-21T09:18:33;12.60;99.90
11497;DHT22;5805;51.542;7.230;2023-11-21T09:20:58;12.60;99.90
11497;DHT22;5805;51.542;7.230;2023-11-21T09:23:24;12.70;99.90
11497;DHT22;5805;51.542;7.230;2023-11-21T09:25:50;12.70;99.90
11497;DHT22;5805;51.542;7.230;2023-11-21T09:28:16;12.70;99.90
11497;DHT22;5805;51.542;7.230;2023-11-21T09:30:43;12.90;99.90
11497;DHT22;5805;51.542;7.230;2023-11-21T09:33:09;12.80;99.90
11497;DHT22;5805;51.542;7.230;2023-11-21T09:35:35;12.70;99.90
11497;DHT22;5805;51.542;7.230;2023-11-21T09:38:00;12.80;99.90
11497;DHT22;5805;51.542;7.230;2023-11-21T09:40:26;12.70;99.90
11497;DHT22;5805;51.542;7.230;2023-11-21T09:42:55;13.10;99.90
11497;DHT22;5805;51.542;7.230;2023-11-21T09:45:25;12.70;99.90
11497;DHT22;5805;51.542;7.230;2023-11-21T09:47:52;12.80;99.90
11497;DHT22;5805;51.542;7.230;2023-11-21T09:50:20;12.60;99.90
11497;DHT22;5805;51.542;7.230;2023-11-21T09:52:54;12.60;99.90
11497;DHT22;5805;51.542;7.230;2023-11-21T09:55:21;12.60;99.90
11497;DHT22;5805;51.542;7.230;2023-11-21T09:57:48;12.50;99.90
11497;DHT22;5805;51.542;7.230;2023-11-21T10:00:14;12.50;99.90
11497;DHT22;5805;51.542;7.230;2023-11-21T10:02:40;12.60;99.90
11497;DHT22;5805;51.542;7.230;2023-11-21T10:05:08;12.60;99.90
11497;DHT22;5805;51.542;7.230;2023-11-21T10:07:34;12.60;99.90
11497;DHT22;5805;51.542;7.230;2023-11-21T10:10:01;12.50;99.90
11497;DHT22;5805;51.542;7.230;2023-11-21T10:12:28;12.60;99.90
11497;DHT22;5805;51.542;7.230;2023-11-21T10:14:54;12.70;99.90
11497;DHT22;5805;51.542;7.230;2023-11-21T10:17:24;12.70;99.90
11497;DHT22;5805;51.542;7.230;2023-11-21T10:19:50;12.80;99.90
11497;DHT22;5805;51.542;7.230;2023-11-21T10:22:17;12.90;99.90
11497;DHT22;5805;51.542;7.230;2023-11-21T10:24:43;13.50;99.90
11497;DHT22;5805;51.542;7.230;2023-11-21T10:27:08;13.10;99.90
11497;DHT22;5805;51.542;7.230;2023-11-21T10:29:34;13.10;99.90
11497;DHT22;5805;51.542;7.230;2023-11-21T10:32:00;13.10;99.90
11497;DHT22;5805;51.542;7.230;2023-11-21T10:34:26;13.20;99.90
11497;DHT22;5805;51.542;7.230;2023-11-21T10:36:52;13.20;99.90
11497;DHT22;5805;51.542;7.230;2023-11-21T10:39:20;13.20;99.90
11497;DHT22;5805;51.542;7.230;2023-11-21T10:41:46;13.20;99.90
11497;DHT22;5805;51.542;7.230;2023-11-21T10:44:14;13.30;99.90
11497;DHT22;5805;51.542;7.230;2023-11-21T10:46:39;13.40;99.90
11497;DHT22;5805;51.542;7.230;2023-11-21T10:49:05;13.50;99.90
11497;DHT22;5805;51.542;7.230;2023-11-21T10:51:31;13.50;99.90
11497;DHT22;5805;51.542;7.230;2023-11-21T10:53:57;13.60;99.90
11497;DHT22;5805;51.542;7.230;2023-11-21T10:56:26;13.50;99.90
11497;DHT22;5805;51.542;7.230;2023-11-21T10:58:52;13.60;99.90
11497;DHT22;5805;51.542;7.230;2023-11-21T11:01:18;13.50;99.90
11497;DHT22;5805;51.542;7.230;2023-11-21T11:03:44;13.50;99.90
11497;DHT22;5805;51.542;7.230;2023-11-21T11:06:10;13.60;99.90
11497;DHT22;5805;51.542;7.230;2023-11-21T11:08:38;13.60;99.90
11497;DHT22;5805;51.542;7.230;2023-11-21T11:11:04;13.60;99.90
11497;DHT22;5805;51.542;7.230;2023-11-21T11:13:32;13.70;99.90
11497;DHT22;5805;51.542;7.230;2023-11-21T11:15:58;13.70;99.90
11497;DHT22;5805;51.542;7.230;2023-11-21T11:18:24;13.70;99.90
11497;DHT22;5805;51.542;7.230;2023-11-21T11:20:51;13.70;99.90
11497;DHT22;5805;51.542;7.230;2023-11-21T11:23:32;13.70;99.90
11497;DHT22;5805;51.542;7.230;2023-11-21T11:26:15;13.50;99.90
11497;DHT22;5805;51.542;7.230;2023-11-21T11:28:51;13.40;99.90
11497;DHT22;5805;51.542;7.230;2023-11-21T11:31:27;13.40;99.90
11497;DHT22;5805;51.542;7.230;2023-11-21T11:34:00;13.40;99.90
11497;DHT22;5805;51.542;7.230;2023-11-21T11:36:35;13.40;99.90
11497;DHT22;5805;51.542;7.230;2023-11-21T11:39:03;13.30;99.90
11497;DHT22;5805;51.542;7.230;2023-11-21T11:41:31;13.30;99.90
11497;DHT22;5805;51.542;7.230;2023-11-21T11:43:58;13.20;99.90
11497;DHT22;5805;51.542;7.230;2023-11-21T11:46:39;13.10;99.90
11497;DHT22;5805;51.542;7.230;2023-11-21T11:49:05;13.00;99.90
11497;DHT22;5805;51.542;7.230;2023-11-21T11:51:31;12.90;99.90
11497;DHT22;5805;51.542;7.230;2023-11-21T11:53:57;12.80;99.90
11497;DHT22;5805;51.542;7.230;2023-11-21T11:56:27;12.70;99.90
11497;DHT22;5805;51.542;7.230;2023-11-21T11:58:54;12.70;99.90
11497;DHT22;5805;51.542;7.230;2023-11-21T12:01:24;12.70;99.90
11497;DHT22;5805;51.542;7.230;2023-11-21T12:04:23;12.70;99.90
11497;DHT22;5805;51.542;7.230;2023-11-21T12:06:51;12.80;99.90
11497;DHT22;5805;51.542;7.230;2023-11-21T12:09:18;12.70;99.90
11497;DHT22;5805;51.542;7.230;2023-11-21T12:11:44;12.60;99.90
11497;DHT22;5805;51.542;7.230;2023-11-21T12:14:10;12.50;99.90
11497;DHT22;5805;51.542;7.230;2023-11-21T12:16:38;12.50;99.90
11497;DHT22;5805;51.542;7.230;2023-11-21T12:19:04;12.50;99.90
11497;DHT22;5805;51.542;7.230;2023-11-21T12:21:30;12.30;99.90
11497;DHT22;5805;51.542;7.230;2023-11-21T12:23:55;12.30;99.90
11497;DHT22;5805;51.542;7.230;2023-11-21T12:26:23;12.30;99.90
11497;DHT22;5805;51.542;7.230;2023-11-21T12:28:52;12.30;99.90
11497;DHT22;5805;51.542;7.230;2023-11-21T12:31:17;12.20;99.90
11497;DHT22;5805;51.542;7.230;2023-11-21T12:33:44;12.90;99.90
11497;DHT22;5805;51.542;7.230;2023-11-21T12:36:11;12.20;99.90
11497;DHT22;5805;51.542;7.230;2023-11-21T12:38:37;12.20;99.90
11497;DHT22;5805;51.542;7.230;2023-11-21T12:41:03;12.10;99.90
11497;DHT22;5805;51.542;7.230;2023-11-21T12:43:29;12.10;99.90
11497;DHT22;5805;51.542;7.230;2023-11-21T12:46:04;12.10;99.90
11497;DHT22;5805;51.542;7.230;2023-11-21T12:48:32;12.00;99.90
11497;DHT22;5805;51.542;7.230;2023-11-21T12:50:59;12.00;99.90
11497;DHT22;5805;51.542;7.230;2023-11-21T12:53:24;11.90;99.90
11497;DHT22;5805;51.542;7.230;2023-11-21T12:55:50;12.10;99.90
11497;DHT22;5805;51.542;7.230;2023-11-21T12:58:16;11.90;99.90
11497;DHT22;5805;51.542;7.230;2023-11-21T13:00:44;12.00;99.90
11497;DHT22;5805;51.542;7.230;2023-11-21T13:03:12;12.00;99.90
11497;DHT22;5805;51.542;7.230;2023-11-21T13:05:39;12.50;99.90
11497;DHT22;5805;51.542;7.230;2023-11-21T13:08:08;12.00;99.90
11497;DHT22;5805;51.542;7.230;2023-11-21T13:10:35;12.00;99.90
11497;DHT22;5805;51.542;7.230;2023-11-21T13:13:01;12.00;99.90
11497;DHT22;5805;51.542;7.230;2023-11-21T13:15:27;12.00;99.90
11497;DHT22;5805;51.542;7.230;2023-11-21T13:17:53;11.90;99.90
11497;DHT22;5805;51.542;7.230;2023-11-21T13:20:19;12.00;99.90
11497;DHT22;5805;51.542;7.230;2023-11-21T13:22:47;11.90;99.90
11497;DHT22;5805;51.542;7.230;2023-11-21T13:25:15;11.80;99.90
11497;DHT22;5805;51.542;7.230;2023-11-21T13:27:40;11.60;99.90
11497;DHT22;5805;51.542;7.230;2023-11-21T13:30:07;11.60;99.90
11497;DHT22;5805;51.542;7.230;2023-11-21T13:32:33;11.60;99.90
11497;DHT22;5805;51.542;7.230;2023-11-21T13:34:58;11.60;99.90
11497;DHT22;5805;51.542;7.230;2023-11-21T13:37:24;12.20;99.90
11497;DHT22;5805;51.542;7.230;2023-11-21T13:39:50;11.60;99.90
11497;DHT22;5805;51.542;7.230;2023-11-21T13:42:17;12.20;99.90
11497;DHT22;5805;51.542;7.230;2023-11-21T13:44:43;11.40;99.90
11497;DHT22;5805;51.542;7.230;2023-11-21T13:47:08;11.40;99.90
11497;DHT22;5805;51.542;7.230;2023-11-21T13:49:34;11.40;99.90
11497;DHT22;5805;51.542;7.230;2023-11-21T13:52:00;11.50;99.90
11497;DHT22;5805;51.542;7.230;2023-11-21T13:54:25;11.40;99.90
11497;DHT22;5805;51.542;7.230;2023-11-21T13:56:51;12.00;99.90
11497;DHT22;5805;51.542;7.230;2023-11-21T13:59:18;11.40;99.90
11497;DHT22;5805;51.542;7.230;2023-11-21T14:01:44;11.50;99.90
11497;DHT22;5805;51.542;7.230;2023-11-21T14:04:10;11.50;99.90
11497;DHT22;5805;51.542;7.230;2023-11-21T14:06:36;11.30;99.90
11497;DHT22;5805;51.542;7.230;2023-11-21T14:09:01;11.30;99.90
11497;DHT22;5805;51.542;7.230;2023-11-21T14:11:27;11.20;99.90
11497;DHT22;5805;51.542;7.230;2023-11-21T14:13:53;11.20;99.90
11497;DHT22;5805;51.542;7.230;2023-11-21T14:16:20;11.10;99.90
11497;DHT22;5805;51.542;7.230;2023-11-21T14:18:45;11.20;99.90
11497;DHT22;5805;51.542;7.230;2023-11-21T14:21:11;11.20;99.90
11497;DHT22;5805;51.542;7.230;2023-11-21T14:23:37;11.30;99.90
11497;DHT22;5805;51.542;7.230;2023-11-21T14:26:02;11.40;99.90
11497;DHT22;5805;51.542;7.230;2023-11-21T14:28:28;11.40;99.90
11497;DHT22;5805;51.542;7.230;2023-11-21T14:30:54;11.40;99.90
11497;DHT22;5805;51.542;7.230;2023-11-21T14:33:21;11.40;99.90
11497;DHT22;5805;51.542;7.230;2023-11-21T14:35:46;11.40;99.90
11497;DHT22;5805;51.542;7.230;2023-11-21T14:38:12;11.50;99.90
11497;DHT22;5805;51.542;7.230;2023-11-21T14:40:38;11.40;99.90
11497;DHT22;5805;51.542;7.230;2023-11-21T14:43:04;11.30;99.90
11497;DHT22;5805;51.542;7.230;2023-11-21T14:45:29;11.30;99.90
11497;DHT22;5805;51.542;7.230;2023-11-21T14:47:55;12.00;99.90
11497;DHT22;5805;51.542;7.230;2023-11-21T14:50:22;11.30;99.90
11497;DHT22;5805;51.542;7.230;2023-11-21T14:52:48;11.60;99.90
11497;DHT22;5805;51.542;7.230;2023-11-21T14:55:14;11.10;99.90
11497;DHT22;5805;51.542;7.230;2023-11-21T14:57:39;11.10;99.90
11497;DHT22;5805;51.542;7.230;2023-11-21T15:00:06;11.60;99.90
11497;DHT22;5805;51.542;7.230;2023-11-21T15:02:32;11.00;99.90
11497;DHT22;5805;51.542;7.230;2023-11-21T15:04:58;11.20;99.90
11497;DHT22;5805;51.542;7.230;2023-11-21T15:07:25;10.90;99.90
11497;DHT22;5805;51.542;7.230;2023-11-21T15:09:50;11.00;99.90
11497;DHT22;5805;51.542;7.230;2023-11-21T15:12:16;10.70;99.90
11497;DHT22;5805;51.542;7.230;2023-11-21T15:14:43;11.20;99.90
11497;DHT22;5805;51.542;7.230;2023-11-21T15:17:09;10.60;99.90
11497;DHT22;5805;51.542;7.230;2023-11-21T15:19:35;10.70;99.90
11497;DHT22;5805;51.542;7.230;2023-11-21T15:22:01;10.60;99.90
11497;DHT22;5805;51.542;7.230;2023-11-21T15:24:28;10.60;99.90
11497;DHT22;5805;51.542;7.230;2023-11-21T15:26:54;10.70;99.90
11497;DHT22;5805;51.542;7.230;2023-11-21T15:29:20;10.70;99.90
11497;DHT22;5805;51.542;7.230;2023-11-21T15:31:45;10.70;99.90
11497;DHT22;5805;51.542;7.230;2023-11-21T15:34:11;10.60;99.90
11497;DHT22;5805;51.542;7.230;2023-11-21T15:36:37;10.60;99.90
11497;DHT22;5805;51.542;7.230;2023-11-21T15:39:03;10.60;99.90
11497;DHT22;5805;51.542;7.230;2023-11-21T15:41:32;10.60;99.90